Time;durP1;ratioP1;P1;durP2;ratioP2;P2;SDS_P1;SDS_P2;PMS_P1;PMS_P2;Temp;Humidity;BMP_temperature;BMP_pressure;BME280_temperature;BME280_humidity;BME280_pressure;Samples;Min_cycle;Max_cycle;Signal;HPM_P1;HPM_P2
2022/07/17 00:01:13;;;;;;;1.08;0.30;;;;;;;22.96;46.37;102142.72;7383137;19;20019;-62
2022/07/17 00:03:40;;;;;;;1.25;0.25;;;;;;;22.95;45.92;102142.97;7385465;19;20007;-63
2022/07/17 00:06:08;;;;;;;3.03;0.30;;;;;;;22.90;46.25;102143.56;7383726;19;20014;-62
2022/07/17 00:08:35;;;;;;;1.92;0.30;;;;;;;22.90;46.09;102140.06;7387198;19;20014;-61
2022/07/17 00:11:02;;;;;;;0.80;0.30;;;;;;;22.87;46.03;102149.31;7385438;19;20010;-62
2022/07/17 00:13:29;;;;;;;1.50;0.30;;;;;;;22.85;45.61;102145.19;7388169;19;20443;-62
2022/07/17 00:15:56;;;;;;;1.75;0.30;;;;;;;22.81;45.62;102143.91;7384766;19;20602;-62
2022/07/17 00:18:33;;;;;;;1.15;0.32;;;;;;;22.75;45.99;102150.94;7385935;19;20010;-62
2022/07/17 00:21:00;;;;;;;1.67;0.40;;;;;;;22.70;45.95;102145.31;7385017;19;20015;-62
2022/07/17 00:23:27;;;;;;;1.92;0.30;;;;;;;22.69;47.50;102142.81;7385112;19;20094;-62
2022/07/17 00:26:01;;;;;;;2.42;0.40;;;;;;;22.66;46.70;102140.53;7384813;19;20021;-63
2022/07/17 00:28:28;;;;;;;2.15;0.30;;;;;;;22.60;46.53;102145.66;7384623;19;20295;-62
2022/07/17 00:30:55;;;;;;;1.77;0.40;;;;;;;22.57;46.25;102151.44;7383680;19;20010;-61
2022/07/17 00:33:22;;;;;;;3.20;0.30;;;;;;;22.55;46.53;102156.16;7385930;19;20019;-61
2022/07/17 00:35:49;;;;;;;1.17;0.40;;;;;;;22.51;46.43;102154.91;7384583;19;20338;-62
2022/07/17 00:38:17;;;;;;;1.17;0.35;;;;;;;22.51;46.05;102157.59;7384188;19;20070;-63
2022/07/17 00:40:44;;;;;;;2.80;0.60;;;;;;;22.47;45.56;102167.06;7384459;19;20535;-62
2022/07/17 00:43:11;;;;;;;2.42;0.60;;;;;;;22.46;46.29;102169.94;7386584;19;20361;-63
2022/07/17 00:45:38;;;;;;;3.13;0.28;;;;;;;22.46;46.09;102162.72;7383949;19;20018;-61
2022/07/17 00:48:10;;;;;;;1.48;0.38;;;;;;;22.47;45.67;102168.94;7386134;19;20384;-62
2022/07/17 00:50:41;;;;;;;2.05;0.40;;;;;;;22.46;45.86;102167.25;7382568;19;20007;-63
2022/07/17 00:53:10;;;;;;;1.30;0.30;;;;;;;22.42;45.74;102174.06;7386323;19;20021;-63
2022/07/17 00:55:39;;;;;;;1.08;0.32;;;;;;;22.38;45.93;102176.31;7382230;19;20054;-62
2022/07/17 00:58:10;;;;;;;2.05;0.47;;;;;;;22.36;45.98;102174.84;7384612;19;20024;-63
2022/07/17 01:00:37;;;;;;;1.10;0.50;;;;;;;22.33;45.96;102164.50;7383792;19;20365;-63
2022/07/17 01:03:04;;;;;;;2.88;0.40;;;;;;;22.34;47.42;102163.50;7385342;19;20027;-61
2022/07/17 01:05:32;;;;;;;1.13;0.40;;;;;;;22.33;46.31;102159.16;7382586;19;20040;-62
2022/07/17 01:08:00;;;;;;;1.63;0.35;;;;;;;22.30;46.83;102159.56;7383132;19;20021;-61
2022/07/17 01:10:27;;;;;;;1.17;0.30;;;;;;;22.26;46.41;102159.09;7384844;19;20070;-62
2022/07/17 01:12:53;;;;;;;2.17;0.50;;;;;;;22.23;46.67;102159.50;7383892;19;20014;-62
2022/07/17 01:15:21;;;;;;;1.77;0.50;;;;;;;22.22;46.27;102157.00;7382380;19;20050;-62
2022/07/17 01:17:48;;;;;;;3.38;0.43;;;;;;;22.20;46.76;102159.06;7382232;19;20010;-61
2022/07/17 01:20:15;;;;;;;1.90;0.30;;;;;;;22.18;46.80;102156.59;7384095;19;20499;-61
2022/07/17 01:22:43;;;;;;;0.93;0.40;;;;;;;22.18;46.94;102154.72;7383166;19;20027;-62
2022/07/17 01:25:10;;;;;;;1.83;0.40;;;;;;;22.20;46.05;102146.47;7383026;19;20022;-62
2022/07/17 01:27:38;;;;;;;1.00;0.40;;;;;;;22.19;46.50;102144.84;7379887;19;20338;-63
2022/07/17 01:30:05;;;;;;;0.93;0.40;;;;;;;22.18;46.04;102145.84;7383264;19;20102;-63
2022/07/17 01:32:37;;;;;;;1.40;0.40;;;;;;;22.17;46.38;102146.88;7383423;19;20018;-65
2022/07/17 01:35:05;;;;;;;1.20;0.40;;;;;;;22.16;46.32;102142.53;7384009;19;20014;-65
2022/07/17 01:37:33;;;;;;;0.82;0.38;;;;;;;22.14;46.36;102150.78;7381850;19;20443;-66
2022/07/17 01:39:59;;;;;;;1.25;0.30;;;;;;;22.13;47.14;102146.44;7381923;19;20499;-65
2022/07/17 01:42:27;;;;;;;2.20;0.32;;;;;;;22.16;46.63;102145.22;7380569;19;20018;-66
2022/07/17 01:44:55;;;;;;;1.48;0.40;;;;;;;22.16;46.32;102147.91;7382833;19;20304;-65
2022/07/17 01:47:23;;;;;;;1.17;0.30;;;;;;;22.14;46.50;102141.91;7381892;19;20014;-66
2022/07/17 01:49:53;;;;;;;2.72;0.40;;;;;;;22.12;45.87;102152.00;7384911;19;20029;-65
2022/07/17 01:52:21;;;;;;;0.90;0.38;;;;;;;22.10;46.45;102146.81;7382516;19;20298;-65
2022/07/17 01:54:49;;;;;;;2.80;0.30;;;;;;;22.10;46.74;102148.66;7378134;19;20430;-66
2022/07/17 01:57:16;;;;;;;2.45;0.30;;;;;;;22.07;46.22;102151.75;7381394;19;20464;-65
2022/07/17 01:59:43;;;;;;;0.98;0.32;;;;;;;22.07;47.56;102149.91;7380800;19;20025;-66
2022/07/17 02:02:11;;;;;;;1.27;0.30;;;;;;;22.08;46.43;102153.41;7381823;19;20046;-65
2022/07/17 02:04:41;;;;;;;2.72;0.30;;;;;;;22.07;46.50;102144.53;7384871;19;20566;-65
2022/07/17 02:07:09;;;;;;;2.25;0.30;;;;;;;22.03;46.65;102135.25;7381721;19;20048;-66
2022/07/17 02:09:36;;;;;;;2.70;0.30;;;;;;;22.00;46.71;102140.16;7382801;19;20014;-66
2022/07/17 02:12:04;;;;;;;0.73;0.30;;;;;;;21.98;46.80;102139.53;7382233;19;20108;-64
2022/07/17 02:14:36;;;;;;;1.05;0.40;;;;;;;21.96;46.55;102133.53;7382142;19;20015;-65
2022/07/17 02:17:03;;;;;;;;;;;;;;;21.95;47.02;102139.91;7382179;19;20033;-65
2022/07/17 02:19:30;;;;;;;1.70;0.40;;;;;;;21.93;47.71;102132.03;7382572;19;20354;-65
2022/07/17 02:21:57;;;;;;;1.70;0.40;;;;;;;21.92;46.76;102138.44;7382434;19;20194;-65
2022/07/17 02:24:29;;;;;;;0.70;0.30;;;;;;;21.92;46.61;102134.91;7383191;19;20025;-65
2022/07/17 02:26:56;;;;;;;2.08;0.40;;;;;;;21.89;47.20;102138.78;7388408;19;20014;-65
2022/07/17 02:29:23;;;;;;;3.63;0.40;;;;;;;21.86;47.03;102144.56;7389333;19;20022;-65
2022/07/17 02:31:50;;;;;;;3.00;0.50;;;;;;;21.83;47.28;102144.97;7389824;19;20015;-66
2022/07/17 02:34:17;;;;;;;0.90;0.30;;;;;;;21.83;47.35;102141.44;7388625;19;20011;-64
2022/07/17 02:36:43;;;;;;;1.42;0.40;;;;;;;21.81;48.05;102147.00;7386964;19;20479;-67
2022/07/17 02:39:10;;;;;;;1.20;0.40;;;;;;;21.81;47.09;102140.81;7385178;19;20017;-65
2022/07/17 02:41:37;;;;;;;2.55;0.30;;;;;;;21.80;47.16;102145.31;7386872;19;20018;-66
2022/07/17 02:44:04;;;;;;;1.38;0.40;;;;;;;21.79;46.93;102150.91;7387942;19;20020;-65
2022/07/17 02:46:31;;;;;;;2.03;0.40;;;;;;;21.77;47.48;102159.13;7386560;19;20007;-65
2022/07/17 02:48:58;;;;;;;1.33;0.30;;;;;;;21.74;47.29;102167.53;7389481;19;20378;-65
2022/07/17 02:51:25;;;;;;;0.95;0.40;;;;;;;21.72;47.52;102164.25;7387176;19;20015;-65
2022/07/17 02:53:52;;;;;;;1.10;0.32;;;;;;;21.69;47.56;102157.41;7388560;19;20010;-65
2022/07/17 02:56:19;;;;;;;2.17;0.30;;;;;;;21.67;48.42;102151.44;7388466;19;20015;-66
2022/07/17 02:58:46;;;;;;;1.92;0.50;;;;;;;21.67;47.71;102158.63;7387763;19;20086;-62
2022/07/17 03:01:16;;;;;;;1.60;0.55;;;;;;;21.67;47.92;102151.44;7388874;19;20014;-62
2022/07/17 03:03:43;;;;;;;1.48;0.40;;;;;;;21.66;47.73;102141.72;7389366;19;20022;-62
2022/07/17 03:06:10;;;;;;;1.15;0.30;;;;;;;21.65;47.89;102139.22;7387361;19;20391;-62
2022/07/17 03:08:37;;;;;;;3.17;0.30;;;;;;;21.63;48.22;102128.72;7387389;19;20014;-62
2022/07/17 03:11:05;;;;;;;1.02;0.30;;;;;;;21.63;48.17;102115.31;7387702;19;20010;-63
2022/07/17 03:13:32;;;;;;;1.10;0.30;;;;;;;21.61;48.72;102121.88;7389327;19;20114;-63
2022/07/17 03:15:59;;;;;;;1.58;0.50;;;;;;;21.58;48.65;102123.13;7386513;19;20034;-62
2022/07/17 03:18:26;;;;;;;2.40;0.40;;;;;;;21.58;48.82;102130.31;7389606;19;20444;-62
2022/07/17 03:20:54;;;;;;;0.82;0.40;;;;;;;21.58;48.60;102139.19;7387594;19;20029;-62
2022/07/17 03:23:21;;;;;;;2.30;0.45;;;;;;;21.57;48.89;102139.38;7389573;19;20014;-63
2022/07/17 03:25:48;;;;;;;2.30;0.40;;;;;;;21.55;48.79;102141.41;7386265;19;20229;-63
2022/07/17 03:28:16;;;;;;;1.83;0.60;;;;;;;21.52;48.41;102139.13;7387382;19;20022;-61
2022/07/17 03:30:43;;;;;;;1.50;0.30;;;;;;;21.48;48.69;102141.38;7384018;19;20021;-64
2022/07/17 03:33:10;;;;;;;2.15;0.38;;;;;;;21.45;49.36;102140.91;7387466;19;20042;-62
2022/07/17 03:35:37;;;;;;;1.38;0.40;;;;;;;21.44;49.04;102136.56;7385897;19;20020;-62
2022/07/17 03:38:04;;;;;;;1.90;0.40;;;;;;;21.43;48.88;102138.44;7386052;19;20021;-61
2022/07/17 03:40:31;;;;;;;1.27;0.50;;;;;;;21.41;49.09;102137.78;7385891;19;20032;-61
2022/07/17 03:42:57;;;;;;;2.63;0.40;;;;;;;21.39;49.26;102139.81;7386671;19;20049;-61
2022/07/17 03:45:24;;;;;;;1.63;0.60;;;;;;;21.39;49.23;102145.16;7386015;19;20015;-65
2022/07/17 03:47:51;;;;;;;3.08;0.32;;;;;;;21.37;49.34;102141.88;7385215;19;20372;-65
2022/07/17 03:50:18;;;;;;;2.83;0.45;;;;;;;21.38;49.79;102137.34;7387167;19;20006;-65
2022/07/17 03:52:45;;;;;;;2.97;0.40;;;;;;;21.41;50.14;102137.78;7387273;19;20022;-65
2022/07/17 03:55:13;;;;;;;0.82;0.30;;;;;;;21.44;49.48;102133.88;7385990;19;20010;-66
2022/07/17 03:57:40;;;;;;;1.63;0.63;;;;;;;21.45;49.43;102140.91;7385859;19;20020;-65
2022/07/17 04:00:09;;;;;;;6.50;0.32;;;;;;;21.43;49.78;102135.75;7385112;19;20018;-62
2022/07/17 04:02:36;;;;;;;0.75;0.30;;;;;;;21.42;49.98;102139.44;7385233;19;20015;-61
2022/07/17 04:05:03;;;;;;;1.38;0.30;;;;;;;21.40;49.91;102141.47;7387094;19;20529;-62
2022/07/17 04:07:30;;;;;;;1.38;0.20;;;;;;;21.39;50.50;102142.50;7385361;19;20018;-62
2022/07/17 04:09:59;;;;;;;2.47;0.30;;;;;;;21.40;51.04;102151.34;7386799;19;20010;-61
2022/07/17 04:12:27;;;;;;;1.30;0.38;;;;;;;21.40;51.15;102144.16;7384310;19;20453;-61
2022/07/17 04:14:55;;;;;;;1.35;0.30;;;;;;;21.42;50.63;102139.44;7386062;19;20022;-63
2022/07/17 04:17:22;;;;;;;2.05;0.40;;;;;;;21.43;50.86;102148.31;7386154;19;20021;-63
2022/07/17 04:19:49;;;;;;;0.90;0.38;;;;;;;21.42;50.76;102143.97;7387350;19;20082;-63
2022/07/17 04:22:16;;;;;;;1.48;0.38;;;;;;;21.40;51.19;102146.84;7385054;19;20692;-63
2022/07/17 04:24:44;;;;;;;2.00;0.47;;;;;;;21.38;51.36;102140.84;7387021;19;20028;-63
2022/07/17 04:27:11;;;;;;;1.67;0.50;;;;;;;21.36;51.56;102140.22;7384391;19;20010;-63
2022/07/17 04:29:38;;;;;;;1.77;0.50;;;;;;;21.39;52.31;102138.97;7386827;19;20378;-63
2022/07/17 04:32:06;;;;;;;2.75;0.70;;;;;;;21.39;52.05;102145.16;7384678;19;20018;-63
2022/07/17 04:34:34;;;;;;;2.22;0.65;;;;;;;21.40;52.18;102146.00;7387144;19;20018;-63
2022/07/17 04:37:02;;;;;;;2.97;0.52;;;;;;;21.40;52.21;102143.31;7384897;19;20011;-62
2022/07/17 04:39:30;;;;;;;1.30;0.50;;;;;;;21.38;52.20;102143.53;7384335;19;20015;-62
2022/07/17 04:41:57;;;;;;;1.40;0.40;;;;;;;21.33;52.39;102133.38;7384934;19;20475;-62
2022/07/17 04:44:24;;;;;;;1.90;0.40;;;;;;;21.33;51.99;102143.28;7385466;19;20529;-62
2022/07/17 04:46:51;;;;;;;1.08;0.30;;;;;;;21.33;51.82;102138.72;7384203;19;20112;-62
2022/07/17 04:49:18;;;;;;;1.02;0.38;;;;;;;21.36;51.94;102134.84;7383892;19;20038;-62
2022/07/17 04:51:45;;;;;;;0.88;0.30;;;;;;;21.38;51.56;102145.38;7384151;19;20029;-62
2022/07/17 04:54:12;;;;;;;2.28;0.43;;;;;;;21.37;51.66;102139.19;7385098;19;20595;-62
2022/07/17 04:56:39;;;;;;;1.70;0.30;;;;;;;21.36;52.10;102140.22;7384111;19;20026;-62
2022/07/17 04:59:06;;;;;;;1.88;0.30;;;;;;;21.34;52.34;102135.03;7379575;19;20014;-65
2022/07/17 05:01:34;;;;;;;1.10;0.28;;;;;;;21.34;52.61;102140.38;7384738;19;20126;-65
2022/07/17 05:04:02;;;;;;;2.15;0.47;;;;;;;21.31;53.00;102137.28;7383880;19;20512;-65
2022/07/17 05:06:29;;;;;;;5.95;0.70;;;;;;;21.30;53.29;102149.84;7384575;19;20355;-64
2022/07/17 05:08:56;;;;;;;2.05;0.40;;;;;;;21.28;53.26;102146.50;7381881;19;20020;-64
2022/07/17 05:11:23;;;;;;;1.38;0.30;;;;;;;21.30;53.54;102149.00;7383608;19;20671;-65
2022/07/17 05:13:50;;;;;;;2.70;0.40;;;;;;;21.27;54.01;102144.03;7382738;19;20037;-65
2022/07/17 05:16:17;;;;;;;1.30;0.35;;;;;;;21.27;54.75;102152.06;7381130;19;20021;-65
2022/07/17 05:18:44;;;;;;;1.45;0.35;;;;;;;21.26;54.86;102150.41;7384120;19;20039;-65
2022/07/17 05:21:11;;;;;;;2.85;0.40;;;;;;;21.25;54.94;102146.06;7382108;19;20017;-65
2022/07/17 05:23:38;;;;;;;1.80;0.57;;;;;;;21.23;55.49;102156.16;7383091;19;20019;-66
2022/07/17 05:26:05;;;;;;;1.38;0.30;;;;;;;21.23;55.56;102142.78;7382683;19;20014;-65
2022/07/17 05:28:32;;;;;;;1.33;0.50;;;;;;;21.23;56.26;102140.09;7381277;19;20364;-63
2022/07/17 05:31:04;;;;;;;3.08;0.50;;;;;;;21.23;56.29;102145.44;7382137;19;20082;-62
2022/07/17 05:33:31;;;;;;;1.33;0.40;;;;;;;21.21;57.13;102144.78;7383582;19;20018;-63
2022/07/17 05:35:58;;;;;;;2.90;0.40;;;;;;;21.21;56.87;102145.63;7383078;19;20017;-63
2022/07/17 05:38:25;;;;;;;2.05;0.40;;;;;;;21.20;57.19;102148.47;7381085;19;20018;-65
2022/07/17 05:40:52;;;;;;;3.80;0.40;;;;;;;21.22;57.70;102151.81;7383047;19;20029;-64
2022/07/17 05:43:19;;;;;;;2.05;0.30;;;;;;;21.23;58.73;102150.81;7384663;19;20526;-65
2022/07/17 05:45:46;;;;;;;1.95;0.28;;;;;;;21.23;57.91;102154.28;7380621;19;20029;-65
2022/07/17 05:48:13;;;;;;;2.50;0.40;;;;;;;21.28;57.48;102151.06;7383420;19;20019;-65
2022/07/17 05:50:40;;;;;;;1.77;0.30;;;;;;;21.29;57.19;102150.00;7380733;19;20015;-65
2022/07/17 05:53:07;;;;;;;3.17;0.40;;;;;;;21.29;57.28;102158.88;7383632;19;20015;-66
2022/07/17 05:55:34;;;;;;;1.48;0.38;;;;;;;21.30;57.48;102149.00;7381274;19;20024;-65
2022/07/17 05:58:00;;;;;;;5.93;0.43;;;;;;;21.31;57.43;102145.31;7383733;19;20016;-65
2022/07/17 06:00:27;;;;;;;4.90;0.40;;;;;;;21.32;57.44;102144.28;7385332;19;20018;-66
2022/07/17 06:02:54;;;;;;;7.20;0.50;;;;;;;21.34;59.07;102155.63;7390691;19;20134;-67
2022/07/17 06:05:21;;;;;;;1.92;0.40;;;;;;;21.38;57.96;102154.25;7391977;19;20491;-65
2022/07/17 06:07:48;;;;;;;4.50;0.35;;;;;;;21.42;57.95;102157.38;7387504;19;20017;-64
2022/07/17 06:10:15;;;;;;;2.03;0.40;;;;;;;21.42;57.52;102147.47;7390351;19;20467;-65
2022/07/17 06:12:42;;;;;;;2.67;0.30;;;;;;;21.42;57.65;102152.84;7389723;19;20070;-65
2022/07/17 06:15:09;;;;;;;1.10;0.40;;;;;;;21.42;57.21;102144.81;7389572;19;20025;-66
2022/07/17 06:17:36;;;;;;;3.95;0.30;;;;;;;21.44;57.17;102156.13;7390771;19;20489;-66
2022/07/17 06:20:09;;;;;;;1.25;0.38;;;;;;;21.45;57.61;102146.25;7391446;19;20029;-65
2022/07/17 06:22:36;;;;;;;6.68;0.60;;;;;;;21.48;56.75;102151.25;7388658;19;20114;-65
2022/07/17 06:25:03;;;;;;;2.63;0.28;;;;;;;21.52;56.89;102152.53;7390519;19;20022;-66
2022/07/17 06:27:30;;;;;;;1.10;0.40;;;;;;;21.56;56.58;102146.59;7387669;19;20024;-66
2022/07/17 06:29:57;;;;;;;2.20;0.40;;;;;;;21.57;56.97;102156.28;7391202;19;20036;-65
2022/07/17 06:32:24;;;;;;;1.45;0.30;;;;;;;21.59;57.09;102148.03;7388949;19;20018;-65
2022/07/17 06:34:51;;;;;;;4.35;0.40;;;;;;;21.61;56.84;102146.00;7388420;19;20041;-65
2022/07/17 06:37:18;;;;;;;3.47;0.30;;;;;;;21.65;56.26;102152.63;7386137;19;20019;-65
2022/07/17 06:39:45;;;;;;;2.17;0.40;;;;;;;21.66;57.47;102146.25;7386737;19;20012;-66
2022/07/17 06:42:12;;;;;;;2.72;0.30;;;;;;;21.69;57.24;102151.22;7388012;19;20430;-65
2022/07/17 06:44:41;;;;;;;2.55;0.45;;;;;;;21.72;56.46;102149.00;7390360;19;20363;-66
2022/07/17 06:47:08;;;;;;;2.53;0.47;;;;;;;21.74;56.92;102157.66;7388106;19;20019;-65
2022/07/17 06:49:35;;;;;;;1.40;0.55;;;;;;;21.77;56.56;102148.41;7388666;19;20021;-66
2022/07/17 06:52:02;;;;;;;2.30;0.30;;;;;;;21.76;56.40;102155.63;7387492;19;20395;-66
2022/07/17 06:54:34;;;;;;;2.53;0.50;;;;;;;21.76;56.44;102150.25;7387612;19;20022;-66
2022/07/17 06:57:01;;;;;;;5.28;0.45;;;;;;;21.78;56.22;102147.41;7387241;19;20018;-65
2022/07/17 06:59:27;;;;;;;3.20;0.40;;;;;;;21.82;56.94;102155.88;7387720;19;20022;-66
2022/07/17 07:01:54;;;;;;;2.53;0.32;;;;;;;21.86;56.52;102159.81;7387447;19;20018;-65
2022/07/17 07:04:34;;;;;;;3.65;0.60;;;;;;;21.88;56.02;102153.25;7389884;19;20018;-66
2022/07/17 07:07:01;;;;;;;1.08;0.30;;;;;;;21.89;55.69;102157.56;7385599;19;20011;-66
2022/07/17 07:09:28;;;;;;;1.58;0.30;;;;;;;21.93;55.61;102166.06;7386213;19;20026;-65
2022/07/17 07:11:55;;;;;;;2.25;0.30;;;;;;;21.96;56.46;102165.69;7387459;19;20018;-65
2022/07/17 07:14:22;;;;;;;2.55;0.43;;;;;;;21.98;56.03;102167.19;7387335;19;20041;-65
2022/07/17 07:16:49;;;;;;;2.95;0.47;;;;;;;22.02;56.12;102173.78;7389042;19;20021;-65
2022/07/17 07:19:16;;;;;;;2.45;0.43;;;;;;;22.07;57.50;102170.53;7387978;19;20335;-64
2022/07/17 07:21:43;;;;;;;2.45;0.38;;;;;;;22.08;56.37;102177.56;7388110;19;20017;-65
2022/07/17 07:24:10;;;;;;;2.28;0.30;;;;;;;22.11;56.32;102171.78;7387232;19;20015;-66
2022/07/17 07:26:36;;;;;;;1.98;0.40;;;;;;;22.13;55.98;102170.59;7386867;19;20015;-65
2022/07/17 07:29:03;;;;;;;2.47;0.50;;;;;;;22.17;55.20;102173.69;7385637;19;20018;-65
2022/07/17 07:31:30;;;;;;;4.90;0.40;;;;;;;22.23;55.10;102174.75;7385552;19;20354;-65
2022/07/17 07:33:58;;;;;;;2.38;0.40;;;;;;;22.26;55.46;102174.38;7384893;19;20344;-65
2022/07/17 07:36:25;;;;;;;1.35;0.30;;;;;;;22.28;54.27;102173.16;7385077;19;20061;-65
2022/07/17 07:38:56;;;;;;;1.83;0.50;;;;;;;22.34;54.31;102176.91;7384121;19;20022;-66
2022/07/17 07:41:23;;;;;;;0.93;0.30;;;;;;;22.40;54.20;102174.25;7385595;19;20098;-66
2022/07/17 07:43:50;;;;;;;2.78;0.40;;;;;;;22.47;54.20;102168.94;7386061;19;20377;-65
2022/07/17 07:46:17;;;;;;;3.50;0.40;;;;;;;22.53;54.40;102178.88;7385577;19;20471;-65
2022/07/17 07:48:44;;;;;;;1.90;0.40;;;;;;;22.59;54.33;102178.91;7385712;19;20018;-66
2022/07/17 07:51:12;;;;;;;1.55;0.30;;;;;;;22.66;53.89;102184.28;7384732;19;20018;-66
2022/07/17 07:53:39;;;;;;;2.25;0.50;;;;;;;22.77;53.63;102191.81;7387027;19;20488;-66
2022/07/17 07:56:06;;;;;;;1.77;0.50;;;;;;;22.91;55.01;102196.22;7385820;19;20015;-66
2022/07/17 07:58:33;;;;;;;3.55;0.45;;;;;;;23.01;53.82;102182.41;7387665;19;20078;-67
2022/07/17 08:01:00;;;;;;;4.13;0.38;;;;;;;23.13;53.31;102191.56;7385678;19;20033;-65
2022/07/17 08:03:27;;;;;;;4.05;0.40;;;;;;;23.21;52.43;102177.91;7387725;19;20038;-62
2022/07/17 08:05:54;;;;;;;3.33;0.57;;;;;;;23.31;51.78;102180.25;7384911;19;20041;-63
2022/07/17 08:08:21;;;;;;;2.25;0.35;;;;;;;23.35;51.74;102181.50;7385074;19;20018;-63
2022/07/17 08:10:48;;;;;;;1.85;0.43;;;;;;;23.38;51.40;102183.75;7385381;19;20018;-63
2022/07/17 08:13:15;;;;;;;2.05;0.30;;;;;;;23.41;50.72;102191.44;7386753;19;20101;-63
2022/07/17 08:15:42;;;;;;;1.92;0.30;;;;;;;23.43;50.35;102183.97;7384051;19;20108;-62
2022/07/17 08:18:09;;;;;;;2.15;0.50;;;;;;;23.48;50.54;102180.69;7387108;19;20475;-62
2022/07/17 08:20:36;;;;;;;1.15;0.40;;;;;;;23.53;49.87;102184.44;7382965;19;20022;-63
2022/07/17 08:23:03;;;;;;;2.53;0.43;;;;;;;23.57;49.67;102187.56;7384540;19;20010;-63
2022/07/17 08:25:33;;;;;;;1.95;0.50;;;;;;;23.59;49.67;102177.41;7385405;19;20123;-62
2022/07/17 08:28:04;;;;;;;1.52;0.50;;;;;;;23.64;48.95;102180.31;7386207;19;20021;-63
2022/07/17 08:30:34;;;;;;;2.08;0.50;;;;;;;23.67;48.70;102175.34;7383946;19;20010;-63
2022/07/17 08:33:06;;;;;;;1.38;0.30;;;;;;;23.73;49.63;102187.97;7387860;19;20044;-63
2022/07/17 08:35:35;;;;;;;1.80;0.30;;;;;;;23.79;49.26;102180.94;7384582;19;20084;-65
2022/07/17 08:38:02;;;;;;;1.42;0.32;;;;;;;23.84;48.56;102173.91;7384047;19;20074;-66
2022/07/17 08:40:35;;;;;;;3.75;0.30;;;;;;;23.90;47.43;102180.31;7384173;19;20078;-66
2022/07/17 08:43:04;;;;;;;2.53;0.30;;;;;;;23.95;47.88;102179.69;7386147;19;20010;-65
2022/07/17 08:45:31;;;;;;;2.17;0.30;;;;;;;23.99;47.38;102176.38;7383098;19;20030;-65
2022/07/17 08:47:58;;;;;;;3.40;0.43;;;;;;;24.04;46.76;102167.69;7382542;19;20094;-62
2022/07/17 08:50:29;;;;;;;3.28;0.40;;;;;;;24.08;45.32;102169.75;7385302;19;20006;-62
2022/07/17 08:52:56;;;;;;;2.45;0.40;;;;;;;24.11;45.59;102163.97;7384272;19;20021;-62
2022/07/17 08:55:23;;;;;;;1.20;0.40;;;;;;;24.16;45.54;102166.84;7383220;19;20014;-61
2022/07/17 08:57:50;;;;;;;1.30;0.30;;;;;;;24.23;44.80;102156.09;7382796;19;20018;-63
2022/07/17 09:00:22;;;;;;;1.45;0.40;;;;;;;24.25;44.45;102157.56;7384508;19;20042;-62
2022/07/17 09:02:54;;;;;;;1.38;0.30;;;;;;;24.31;43.57;102166.66;7383187;19;20044;-62
2022/07/17 09:05:22;;;;;;;0.80;0.30;;;;;;;24.37;44.19;102162.28;7385458;19;20089;-64
2022/07/17 09:07:49;;;;;;;2.33;0.30;;;;;;;24.46;43.69;102166.41;7383792;19;20034;-63
2022/07/17 09:10:16;;;;;;;0.90;0.32;;;;;;;24.51;44.34;102162.03;7382133;19;20033;-64
2022/07/17 09:12:43;;;;;;;1.08;0.40;;;;;;;24.58;43.85;102164.72;7383277;19;20018;-63
2022/07/17 09:15:19;;;;;;;2.72;0.50;;;;;;;24.64;43.54;102171.91;7383568;19;20014;-62
2022/07/17 09:17:54;;;;;;;1.65;0.40;;;;;;;24.67;42.72;102171.50;7383272;19;20014;-62
2022/07/17 09:20:23;;;;;;;1.20;0.40;;;;;;;24.70;43.30;102169.22;7382407;19;20014;-63
2022/07/17 09:23:01;;;;;;;1.67;0.43;;;;;;;24.79;43.01;102164.41;7382469;19;20010;-62
2022/07/17 09:25:41;;;;;;;1.77;0.57;;;;;;;24.86;44.01;102161.69;7382289;19;20022;-63
2022/07/17 09:28:10;;;;;;;1.67;0.30;;;;;;;24.96;43.39;102160.22;7383015;19;20014;-63
2022/07/17 09:30:40;;;;;;;1.75;0.47;;;;;;;25.08;43.06;102150.44;7383104;19;20475;-64
2022/07/17 09:33:21;;;;;;;1.38;0.40;;;;;;;25.20;43.30;102163.19;7385851;19;20709;-63
2022/07/17 09:35:50;;;;;;;1.00;0.38;;;;;;;25.24;42.86;102159.88;7381902;19;20118;-65
2022/07/17 09:38:44;;;;;;;1.00;0.30;;;;;;;25.30;42.12;102164.38;7382986;19;20030;-63
2022/07/17 09:41:17;;;;;;;1.60;0.40;;;;;;;25.38;42.97;102161.44;7380985;19;20014;-63
2022/07/17 09:43:52;;;;;;;1.00;0.40;;;;;;;25.46;43.15;102160.31;7381589;19;20015;-64
2022/07/17 09:46:26;;;;;;;2.78;0.40;;;;;;;25.57;42.21;102142.66;7382161;19;20381;-65
2022/07/17 09:48:59;;;;;;;0.98;0.40;;;;;;;25.69;42.58;102144.44;7382878;19;20491;-65
2022/07/17 09:51:28;;;;;;;2.15;0.38;;;;;;;25.77;42.49;102149.53;7380864;19;20011;-65
2022/07/17 09:54:02;;;;;;;1.40;0.30;;;;;;;25.85;41.22;102153.84;7382971;19;20027;-64
2022/07/17 09:56:31;;;;;;;1.67;0.40;;;;;;;25.91;41.71;102153.75;7381504;19;20561;-65
2022/07/17 09:59:09;;;;;;;1.17;0.40;;;;;;;25.96;40.60;102143.13;7379344;19;20006;-65
2022/07/17 10:01:38;;;;;;;1.50;0.40;;;;;;;26.07;40.92;102132.63;7381265;19;20473;-66
2022/07/17 10:04:05;;;;;;;1.58;0.45;;;;;;;26.11;40.10;102141.97;7383416;19;20018;-65
2022/07/17 10:06:32;;;;;;;1.20;0.40;;;;;;;26.13;40.04;102139.84;7381966;19;20444;-66
2022/07/17 10:09:00;;;;;;;1.77;0.50;;;;;;;26.16;39.89;102147.53;7380015;19;20018;-65
2022/07/17 10:11:30;;;;;;;1.30;0.40;;;;;;;26.20;40.87;102144.16;7382063;19;20365;-64
2022/07/17 10:14:10;;;;;;;1.73;0.40;;;;;;;26.28;40.67;102145.75;7381691;19;20039;-65
2022/07/17 10:16:38;;;;;;;1.70;0.40;;;;;;;26.35;41.17;102139.22;7382008;19;20014;-65
2022/07/17 10:19:19;;;;;;;1.58;0.40;;;;;;;26.44;40.92;102145.16;7381101;19;20070;-66
2022/07/17 10:21:55;;;;;;;1.85;0.88;;;;;;;26.53;40.93;102138.38;7382662;19;20006;-64
2022/07/17 10:24:22;;;;;;;1.42;0.50;;;;;;;26.55;41.04;102147.09;7380554;19;20451;-65
2022/07/17 10:26:50;;;;;;;1.77;0.50;;;;;;;26.58;41.05;102138.53;7377602;19;20030;-65
2022/07/17 10:29:38;;;;;;;0.85;0.40;;;;;;;26.62;41.62;102139.72;7377212;19;20026;-66
2022/07/17 10:32:19;;;;;;;2.17;0.47;;;;;;;26.67;41.00;102139.03;7380759;19;20099;-65
2022/07/17 10:34:48;;;;;;;2.42;0.50;;;;;;;26.68;41.23;102138.00;7383029;19;20048;-66
2022/07/17 10:37:24;;;;;;;1.90;0.43;;;;;;;26.71;40.70;102142.97;7379809;19;20453;-65
2022/07/17 10:40:06;;;;;;;1.50;0.40;;;;;;;26.74;41.28;102148.72;7381174;19;20550;-65
2022/07/17 10:42:44;;;;;;;;;;;;;;;26.75;41.06;102130.63;7381142;19;20006;-65
2022/07/17 10:45:24;;;;;;;2.17;0.50;;;;;;;26.73;40.97;102132.72;7381387;19;19953;-66
2022/07/17 10:47:58;;;;;;;1.50;0.50;;;;;;;26.77;42.24;102142.03;7388597;19;20831;-65
2022/07/17 10:50:35;;;;;;;5.82;2.35;;;;;;;26.81;41.82;102127.03;7386637;19;20474;-64
2022/07/17 10:53:07;;;;;;;1.40;0.40;;;;;;;26.86;41.37;102134.44;7388656;19;20441;-67
2022/07/17 10:55:39;;;;;;;1.75;0.52;;;;;;;26.84;41.37;102129.25;7386589;19;20102;-64
2022/07/17 10:58:16;;;;;;;4.93;0.55;;;;;;;26.88;40.64;102124.25;7388864;19;20037;-65
2022/07/17 11:01:15;;;;;;;2.88;0.50;;;;;;;26.92;40.76;102118.16;7387461;19;20032;-66
2022/07/17 11:03:50;;;;;;;1.08;0.40;;;;;;;27.00;40.17;102115.16;7389216;19;20022;-64
2022/07/17 11:06:20;;;;;;;1.42;0.55;;;;;;;27.05;40.40;102109.03;7387034;19;20125;-65
2022/07/17 11:08:50;;;;;;;1.00;0.40;;;;;;;27.11;40.62;102111.66;7389222;19;20309;-65
2022/07/17 11:11:20;;;;;;;1.58;0.57;;;;;;;27.17;41.35;102101.81;7386574;19;20018;-67
2022/07/17 11:14:33;;;;;;;1.75;0.50;;;;;;;27.21;40.37;102098.41;7388599;19;20033;-66
2022/07/17 11:17:04;;;;;;;2.65;0.60;;;;;;;27.25;40.53;102090.66;7387062;19;20093;-67
2022/07/17 11:19:34;;;;;;;1.83;0.70;;;;;;;27.30;40.40;102087.25;7388939;19;20444;-66
2022/07/17 11:22:03;;;;;;;3.15;0.60;;;;;;;27.36;40.24;102095.25;7388425;19;20482;-66
2022/07/17 11:24:47;;;;;;;2.00;0.50;;;;;;;27.43;40.13;102082.44;7386535;19;20090;-66
2022/07/17 11:27:26;;;;;;;1.65;0.50;;;;;;;27.47;39.76;102089.03;7386364;19;20904;-66
2022/07/17 11:29:54;;;;;;;1.63;0.50;;;;;;;27.49;39.50;102083.38;7385339;19;20340;-67
2022/07/17 11:32:22;;;;;;;1.15;0.60;;;;;;;27.55;39.07;102079.78;7386256;19;20017;-65
2022/07/17 11:34:49;;;;;;;1.88;0.70;;;;;;;27.60;39.64;102079.88;7388536;19;20372;-66